Time;durP1;ratioP1;P1;durP2;ratioP2;P2;SDS_P1;SDS_P2;PMS_P1;PMS_P2;Temp;Humidity;BMP_temperature;BMP_pressure;BME280_temperature;BME280_humidity;BME280_pressure;Samples;Min_cycle;Max_cycle;Signal;HPM_P1;HPM_P2
2021/12/07 00:02:02;;;;;;;19.77;8.77;;;-0.10;96.50;;;;;;5016388;28;20073;-62
2021/12/07 00:04:28;;;;;;;22.15;10.30;;;-0.10;96.50;;;;;;5002757;28;20057;-63
2021/12/07 00:06:55;;;;;;;21.48;10.18;;;-0.20;96.60;;;;;;5002894;28;20045;-62
2021/12/07 00:09:22;;;;;;;21.92;9.50;;;-0.20;96.70;;;;;;5001955;28;20018;-61
2021/12/07 00:11:48;;;;;;;17.10;8.50;;;-0.10;96.50;;;;;;5003139;28;20087;-62
2021/12/07 00:14:24;;;;;;;21.67;9.25;;;-0.10;96.60;;;;;;5002660;28;20021;-62
2021/12/07 00:16:50;;;;;;;15.88;8.32;;;0.00;96.20;;;;;;5007687;28;20025;-63
2021/12/07 00:19:16;;;;;;;22.10;10.13;;;0.10;96.10;;;;;;5022468;28;20018;-63
2021/12/07 00:21:43;;;;;;;18.87;8.17;;;0.10;96.00;;;;;;5023432;28;20037;-63
2021/12/07 00:24:09;;;;;;;22.33;10.43;;;0.10;95.80;;;;;;5022563;28;20137;-62
2021/12/07 00:26:37;;;;;;;19.55;9.38;;;0.10;95.80;;;;;;5022397;28;20018;-62
2021/12/07 00:29:03;;;;;;;19.95;9.60;;;0.20;95.60;;;;;;5022598;28;20080;-63
2021/12/07 00:31:38;;;;;;;21.85;9.68;;;0.20;95.60;;;;;;5022459;28;20338;-62
2021/12/07 00:36:37;;;;;;;19.58;9.50;;;0.10;95.60;;;;;;5022430;28;20029;-62
2021/12/07 00:39:06;;;;;;;15.82;8.63;;;0.10;95.60;;;;;;5021882;28;20026;-63
2021/12/07 00:41:32;;;;;;;25.10;9.93;;;0.10;95.60;;;;;;5021206;28;20026;-63
2021/12/07 00:43:58;;;;;;;15.43;6.88;;;0.10;95.70;;;;;;5022158;28;20030;-63
2021/12/07 00:46:26;;;;;;;22.53;10.20;;;0.10;95.90;;;;;;5022161;28;20025;-63
2021/12/07 00:48:52;;;;;;;18.25;8.25;;;0.20;95.70;;;;;;5022147;28;20030;-63
2021/12/07 00:51:18;;;;;;;21.10;9.55;;;0.10;95.70;;;;;;5023143;28;20068;-63
2021/12/07 00:53:43;;;;;;;19.15;9.10;;;0.10;95.90;;;;;;5025664;28;20056;-62
2021/12/07 00:56:09;;;;;;;18.85;9.02;;;0.10;96.00;;;;;;5025545;28;20017;-62
2021/12/07 00:58:35;;;;;;;20.30;8.93;;;0.00;96.20;;;;;;5025701;28;20341;-63
2021/12/07 01:01:07;;;;;;;20.90;9.05;;;0.00;96.20;;;;;;5025620;28;20346;-63
2021/12/07 01:03:34;;;;;;;18.85;8.88;;;0.00;96.30;;;;;;5025270;28;20026;-63
2021/12/07 01:08:53;;;;;;;19.77;8.93;;;0.00;96.30;;;;;;5025306;28;20220;-63
2021/12/07 01:25:06;;;;;;;20.65;9.30;;;0.20;96.10;;;;;;5024701;28;20072;-63
2021/12/07 01:27:31;;;;;;;;;;;0.20;95.80;;;;;;5025553;28;20045;-63
2021/12/07 01:30:10;;;;;;;20.17;8.80;;;0.30;95.70;;;;;;5024003;28;19905;-63
2021/12/07 01:50:08;;;;;;;21.33;10.13;;;0.20;95.70;;;;;;5024436;28;20026;-63
2021/12/07 01:59:49;;;;;;;21.35;9.63;;;0.20;95.80;;;;;;5024542;28;20220;-63
2021/12/07 02:02:16;;;;;;;20.55;9.18;;;0.20;96.00;;;;;;5024123;28;20026;-63
2021/12/07 02:04:42;;;;;;;23.23;10.05;;;0.30;95.80;;;;;;5024048;28;20049;-62
2021/12/07 02:07:08;;;;;;;22.33;9.90;;;0.30;95.60;;;;;;5024255;28;20029;-63
2021/12/07 02:09:35;;;;;;;21.67;9.32;;;0.30;95.70;;;;;;5024323;28;20328;-64
2021/12/07 02:12:03;;;;;;;17.30;8.68;;;0.30;95.60;;;;;;5024283;28;20018;-63
2021/12/07 02:14:30;;;;;;;18.90;9.57;;;0.40;95.60;;;;;;5022831;28;20021;-63
2021/12/07 02:16:59;;;;;;;20.33;10.25;;;0.40;95.40;;;;;;5024340;28;20101;-63
2021/12/07 02:19:25;;;;;;;22.42;9.68;;;0.50;95.30;;;;;;5023871;28;20089;-63
2021/12/07 02:21:53;;;;;;;23.40;10.63;;;0.50;95.30;;;;;;5024124;28;20041;-63
2021/12/07 02:24:19;;;;;;;19.25;9.93;;;0.50;95.30;;;;;;5023649;28;20060;-63
2021/12/07 02:26:47;;;;;;;23.48;10.80;;;0.50;95.30;;;;;;5024194;28;20055;-63
2021/12/07 02:29:13;;;;;;;21.58;10.15;;;0.50;95.30;;;;;;5023945;28;20343;-63
2021/12/07 02:31:39;;;;;;;24.38;11.10;;;0.50;95.20;;;;;;5023952;28;20057;-63
2021/12/07 02:34:05;;;;;;;22.98;10.50;;;0.50;95.30;;;;;;5023521;28;20029;-63
2021/12/07 02:36:31;;;;;;;26.77;10.27;;;0.60;95.10;;;;;;5023600;28;20018;-63
2021/12/07 02:38:57;;;;;;;22.40;9.85;;;0.60;95.10;;;;;;5023638;28;20260;-63
2021/12/07 02:41:23;;;;;;;21.10;10.40;;;0.60;95.10;;;;;;5022652;28;20197;-63
2021/12/07 02:43:49;;;;;;;26.90;10.20;;;0.60;95.00;;;;;;5023473;28;20056;-63
2021/12/07 02:46:15;;;;;;;20.95;10.63;;;0.60;95.10;;;;;;5023314;28;20036;-63
2021/12/07 02:48:40;;;;;;;22.25;10.30;;;0.60;95.20;;;;;;5023354;28;20213;-64
2021/12/07 02:51:06;;;;;;;24.23;10.60;;;0.70;95.00;;;;;;5023402;28;20049;-63
2021/12/07 02:53:33;;;;;;;22.95;10.05;;;0.70;95.00;;;;;;5022476;28;20316;-63
2021/12/07 02:56:00;;;;;;;22.98;9.93;;;0.70;95.20;;;;;;5023246;28;20320;-62
2021/12/07 02:58:26;;;;;;;23.42;10.50;;;0.60;95.30;;;;;;5024624;28;20089;-62
2021/12/07 03:01:00;;;;;;;21.48;9.73;;;0.60;95.30;;;;;;5026292;28;20030;-63
2021/12/07 03:03:28;;;;;;;23.05;11.25;;;0.60;95.50;;;;;;5026864;28;20216;-63
2021/12/07 03:27:34;;;;;;;23.52;10.00;;;0.70;96.80;;;;;;5022860;28;20048;-63
2021/12/07 03:30:00;;;;;;;25.45;12.30;;;0.60;96.90;;;;;;5010514;28;20328;-62
2021/12/07 03:32:26;;;;;;;22.63;11.20;;;0.70;97.00;;;;;;5014267;28;20036;-63
2021/12/07 03:34:52;;;;;;;24.35;12.02;;;0.70;97.00;;;;;;5025754;22;20045;-68
2021/12/07 03:37:18;;;;;;;27.20;12.00;;;0.70;97.00;;;;;;5009196;28;20053;-68
2021/12/07 03:39:44;;;;;;;29.00;12.95;;;0.70;97.00;;;;;;5001820;28;20089;-68
2021/12/07 03:42:10;;;;;;;26.70;12.90;;;0.70;97.10;;;;;;4999065;28;20034;-68
2021/12/07 03:44:36;;;;;;;33.10;14.35;;;0.70;97.10;;;;;;4992747;28;20234;-69
2021/12/07 03:47:02;;;;;;;26.53;12.50;;;0.70;97.10;;;;;;4991329;28;20030;-68
2021/12/07 03:49:28;;;;;;;26.05;11.85;;;0.80;97.20;;;;;;4991761;28;20027;-68
2021/12/07 03:51:54;;;;;;;30.00;13.43;;;0.80;97.20;;;;;;4991654;28;20114;-68
2021/12/07 03:54:20;;;;;;;29.33;12.25;;;0.80;97.40;;;;;;4989686;28;20117;-68
2021/12/07 03:56:46;;;;;;;26.90;12.38;;;0.80;97.30;;;;;;4991447;28;20088;-68
2021/12/07 03:59:12;;;;;;;27.60;13.05;;;0.80;97.30;;;;;;4991820;28;20038;-69
2021/12/07 04:01:38;;;;;;;27.55;12.13;;;0.80;97.30;;;;;;4992386;28;20037;-69
2021/12/07 04:04:03;;;;;;;30.50;12.27;;;0.90;97.30;;;;;;4990545;28;20026;-69
2021/12/07 04:06:29;;;;;;;28.20;13.73;;;0.90;97.30;;;;;;4990863;28;20053;-68
2021/12/07 04:08:55;;;;;;;27.65;13.52;;;0.90;97.40;;;;;;4987127;28;20050;-68
2021/12/07 04:11:21;;;;;;;33.13;14.45;;;0.90;97.50;;;;;;4982594;28;20353;-68
2021/12/07 04:13:47;;;;;;;31.53;14.23;;;0.90;97.50;;;;;;4981228;28;20235;-69
2021/12/07 04:16:14;;;;;;;29.77;13.10;;;0.90;97.50;;;;;;4982095;28;20034;-69
2021/12/07 04:18:40;;;;;;;;;;;1.00;97.60;;;;;;4981512;28;20049;-69
2021/12/07 04:21:06;;;;;;;28.02;12.05;;;1.00;97.50;;;;;;4982248;28;19906;-69
2021/12/07 04:23:33;;;;;;;30.42;13.05;;;1.00;97.40;;;;;;4982265;28;20023;-72
2021/12/07 04:26:00;;;;;;;31.67;13.77;;;1.00;97.50;;;;;;4965598;28;20077;-69
2021/12/07 04:28:26;;;;;;;;;;;1.00;97.50;;;;;;4969038;28;20027;-69
2021/12/07 04:30:52;;;;;;;28.73;12.15;;;1.00;97.50;;;;;;4986036;28;19906;-68
2021/12/07 04:33:17;;;;;;;28.65;12.13;;;1.00;97.50;;;;;;4985174;28;20035;-67
2021/12/07 04:35:47;;;;;;;29.23;13.27;;;1.00;97.50;;;;;;4984290;28;20027;-67
2021/12/07 04:38:13;;;;;;;29.02;13.00;;;1.00;97.50;;;;;;4985638;28;20033;-67
2021/12/07 04:40:39;;;;;;;28.45;13.38;;;1.00;97.40;;;;;;4984658;28;20129;-69
2021/12/07 04:43:06;;;;;;;29.45;13.82;;;1.00;97.30;;;;;;4985691;28;20022;-69
2021/12/07 04:58:32;;;;;;;26.77;11.98;;;1.20;97.20;;;;;;4985412;28;20113;-69
2021/12/07 05:00:58;;;;;;;26.88;12.90;;;1.20;97.20;;;;;;4984269;28;20091;-68
2021/12/07 05:03:26;;;;;;;35.45;14.27;;;1.20;97.10;;;;;;4999928;28;20083;-69
2021/12/07 05:05:53;;;;;;;31.77;13.07;;;1.20;97.10;;;;;;4985093;28;20027;-69
2021/12/07 05:08:35;;;;;;;;;;;1.20;97.10;;;;;;4984446;28;20023;-69
2021/12/07 05:16:06;;;;;;;28.35;12.10;;;1.30;97.10;;;;;;4984838;28;20261;-68
2021/12/07 05:18:53;;;;;;;23.15;10.50;;;1.30;97.00;;;;;;4984945;28;20048;-69
2021/12/07 05:24:25;;;;;;;23.45;10.98;;;1.40;96.90;;;;;;4970377;28;20081;-69
2021/12/07 05:37:44;;;;;;;23.67;10.90;;;1.40;96.80;;;;;;4983844;28;20405;-68
2021/12/07 05:38:00;;;;;;;23.30;9.88;;;1.40;96.80;;;;;;4969921;28;20214;-69
2021/12/07 05:40:33;;;;;;;21.52;8.35;;;1.40;96.80;;;;;;4984677;28;20351;-68
2021/12/07 05:43:00;;;;;;;23.33;10.63;;;1.50;96.80;;;;;;4984415;28;20069;-69
2021/12/07 05:45:33;;;;;;;21.15;10.82;;;1.50;96.90;;;;;;4984227;28;20034;-69
2021/12/07 05:48:03;;;;;;;22.70;10.75;;;1.50;96.80;;;;;;4979905;28;20039;-69
2021/12/07 05:50:30;;;;;;;24.08;10.02;;;1.60;96.80;;;;;;4986422;28;20102;-69
2021/12/07 05:52:57;;;;;;;19.52;9.18;;;1.50;96.70;;;;;;4984775;28;20027;-69
2021/12/07 05:55:22;;;;;;;22.77;9.77;;;1.50;96.70;;;;;;4984949;28;20027;-69
2021/12/07 05:57:48;;;;;;;28.60;9.90;;;1.50;96.80;;;;;;4984149;28;20030;-68
2021/12/07 06:00:25;;;;;;;24.25;9.50;;;1.60;96.80;;;;;;4984134;28;20027;-68
2021/12/07 06:02:53;;;;;;;18.80;9.13;;;1.60;96.80;;;;;;4984113;28;20057;-69
2021/12/07 06:05:20;;;;;;;19.88;8.38;;;1.70;96.70;;;;;;4983807;28;20031;-69
2021/12/07 06:07:46;;;;;;;19.77;8.68;;;1.60;96.70;;;;;;4951381;28;20023;-70
2021/12/07 06:10:12;;;;;;;21.02;9.00;;;1.70;96.70;;;;;;4984133;28;20081;-67
2021/12/07 06:12:38;;;;;;;18.50;9.25;;;1.70;96.70;;;;;;4986576;28;20030;-68
2021/12/07 06:15:04;;;;;;;19.33;9.10;;;1.70;96.80;;;;;;4993348;28;20026;-68
2021/12/07 06:17:30;;;;;;;15.90;8.18;;;1.70;96.80;;;;;;4994223;28;20027;-68
2021/12/07 06:19:56;;;;;;;17.70;7.95;;;1.70;96.80;;;;;;4986367;28;20321;-67
2021/12/07 06:22:22;;;;;;;19.73;7.85;;;1.70;96.80;;;;;;4983738;28;20035;-67
2021/12/07 06:24:47;;;;;;;15.63;6.75;;;1.80;96.70;;;;;;4983314;28;20023;-67
2021/12/07 06:27:13;;;;;;;15.10;6.70;;;1.80;96.70;;;;;;4983682;28;20085;-68
2021/12/07 06:29:39;;;;;;;15.57;7.75;;;1.80;96.80;;;;;;4983637;28;20022;-68
2021/12/07 06:32:06;;;;;;;15.23;7.10;;;1.80;96.70;;;;;;4983486;28;20026;-68
2021/12/07 06:34:32;;;;;;;16.52;6.90;;;1.80;96.80;;;;;;4981641;28;20039;-68
2021/12/07 06:36:59;;;;;;;13.95;6.03;;;1.80;97.00;;;;;;4982483;28;20230;-68
2021/12/07 06:39:25;;;;;;;10.80;5.40;;;1.90;96.90;;;;;;4983434;28;20080;-68
2021/12/07 06:41:51;;;;;;;11.70;5.82;;;1.90;96.80;;;;;;4983437;28;20046;-68
2021/12/07 06:44:17;;;;;;;8.60;5.10;;;1.90;96.80;;;;;;4982785;28;20105;-68
2021/12/07 06:46:42;;;;;;;11.88;5.78;;;2.00;96.60;;;;;;4983539;28;20073;-68
2021/12/07 06:49:08;;;;;;;10.60;4.50;;;2.00;96.70;;;;;;4983249;28;20094;-68
2021/12/07 06:51:34;;;;;;;9.43;4.32;;;2.10;96.70;;;;;;4984375;28;20175;-68
2021/12/07 06:54:00;;;;;;;7.95;3.90;;;2.00;96.70;;;;;;4984235;28;20023;-68
2021/12/07 06:56:28;;;;;;;6.88;3.28;;;2.00;96.70;;;;;;4999016;28;20032;-67
2021/12/07 06:58:54;;;;;;;9.10;4.10;;;2.00;96.80;;;;;;4984666;28;20058;-67
2021/12/07 07:01:20;;;;;;;3.83;2.50;;;2.00;96.90;;;;;;4958845;28;20026;-67
2021/12/07 07:03:45;;;;;;;4.97;2.45;;;2.10;96.70;;;;;;5018499;28;20053;-67
2021/12/07 07:06:11;;;;;;;6.65;1.92;;;2.20;96.60;;;;;;5007415;28;20352;-66
2021/12/07 07:08:37;;;;;;;3.75;2.08;;;2.20;96.30;;;;;;5003629;28;20097;-66
2021/12/07 07:11:04;;;;;;;4.90;2.13;;;2.30;96.20;;;;;;5003598;28;20029;-67
2021/12/07 07:13:31;;;;;;;3.97;2.00;;;2.30;96.10;;;;;;5003503;28;20018;-67
2021/12/07 07:15:58;;;;;;;5.25;1.98;;;2.40;95.80;;;;;;5002202;28;20022;-67
2021/12/07 07:18:24;;;;;;;;;;;2.50;95.70;;;;;;5003264;28;20038;-67
2021/12/07 07:20:50;;;;;;;5.20;2.80;;;2.50;95.50;;;;;;4984418;28;19941;-67
2021/12/07 07:23:15;;;;;;;4.35;3.13;;;2.60;95.40;;;;;;4983975;28;20054;-67
2021/12/07 07:25:41;;;;;;;6.67;3.03;;;2.60;95.30;;;;;;4985086;28;20026;-68
2021/12/07 07:28:10;;;;;;;4.50;1.85;;;2.70;94.90;;;;;;4992249;28;20229;-68
2021/12/07 07:30:36;;;;;;;2.33;1.55;;;2.70;94.80;;;;;;5010249;28;20026;-68
2021/12/07 07:33:01;;;;;;;6.75;2.17;;;2.70;95.00;;;;;;4983552;28;20060;-68
2021/12/07 07:35:27;;;;;;;3.58;1.60;;;2.70;94.80;;;;;;4983459;28;20086;-68
2021/12/07 07:37:53;;;;;;;4.63;1.97;;;2.70;94.70;;;;;;4982775;28;20077;-68
2021/12/07 07:40:21;;;;;;;3.28;2.20;;;2.80;94.70;;;;;;4998878;28;20030;-68
2021/12/07 07:42:46;;;;;;;3.67;2.33;;;2.80;94.80;;;;;;4982733;28;20031;-68
2021/12/07 07:45:12;;;;;;;3.42;2.20;;;2.80;94.90;;;;;;4983285;28;20062;-67
2021/12/07 07:47:38;;;;;;;2.70;2.30;;;2.80;94.70;;;;;;4982687;28;20015;-67
2021/12/07 07:50:06;;;;;;;3.03;2.05;;;2.80;94.60;;;;;;4982341;28;20035;-67
2021/12/07 07:52:31;;;;;;;4.85;1.95;;;2.80;94.40;;;;;;4982566;28;20023;-67
2021/12/07 07:54:57;;;;;;;4.00;1.73;;;2.90;94.30;;;;;;4983234;28;20280;-67
2021/12/07 07:57:23;;;;;;;3.60;1.80;;;2.80;94.50;;;;;;4966629;28;20076;-67
2021/12/07 07:59:49;;;;;;;6.03;2.28;;;2.90;94.40;;;;;;4984188;28;20289;-66
2021/12/07 08:02:15;;;;;;;4.18;2.00;;;2.90;94.40;;;;;;4987809;28;20090;-66
2021/12/07 08:04:41;;;;;;;5.22;2.00;;;2.90;94.30;;;;;;4986268;28;20026;-67
2021/12/07 08:07:07;;;;;;;6.88;1.73;;;2.90;94.20;;;;;;4987511;28;20034;-67
2021/12/07 08:09:33;;;;;;;3.20;1.80;;;2.90;94.10;;;;;;4987452;28;20262;-68
2021/12/07 08:11:58;;;;;;;5.47;1.85;;;2.90;94.20;;;;;;4987429;28;20019;-69
2021/12/07 08:14:24;;;;;;;6.25;2.67;;;3.00;93.80;;;;;;4987146;28;20046;-67
2021/12/07 08:16:50;;;;;;;5.05;2.58;;;3.00;93.90;;;;;;4987530;28;20030;-67
2021/12/07 08:19:16;;;;;;;3.80;2.20;;;3.00;93.90;;;;;;4987113;28;20023;-67
2021/12/07 08:21:42;;;;;;;7.13;1.90;;;3.00;93.70;;;;;;4987397;28;20057;-68
2021/12/07 08:24:08;;;;;;;5.93;1.80;;;3.10;93.80;;;;;;4986954;28;20069;-67
2021/12/07 08:26:34;;;;;;;3.77;1.63;;;3.00;93.80;;;;;;4986995;28;20027;-67
2021/12/07 08:29:00;;;;;;;7.30;2.20;;;3.00;93.80;;;;;;4987085;28;20053;-67
2021/12/07 08:31:26;;;;;;;4.67;2.00;;;3.10;93.80;;;;;;4987216;28;20022;-68
2021/12/07 08:33:52;;;;;;;2.47;1.80;;;3.10;93.70;;;;;;4985554;28;20372;-68
2021/12/07 08:36:18;;;;;;;5.22;1.75;;;3.10;93.30;;;;;;4986735;28;20038;-67
2021/12/07 08:38:44;;;;;;;3.85;2.00;;;3.20;93.50;;;;;;4986866;28;20054;-67
2021/12/07 08:41:11;;;;;;;4.13;1.90;;;3.20;93.40;;;;;;4986773;28;20026;-67
2021/12/07 08:43:38;;;;;;;4.68;1.88;;;3.20;93.30;;;;;;4985731;28;20056;-67
2021/12/07 08:46:03;;;;;;;;;;;3.20;93.30;;;;;;4986057;28;20090;-67
2021/12/07 08:48:31;;;;;;;5.55;2.35;;;3.20;93.40;;;;;;4986633;28;19910;-67
2021/12/07 08:50:57;;;;;;;9.13;2.15;;;3.20;93.40;;;;;;4986473;28;20340;-67
2021/12/07 08:53:23;;;;;;;7.80;2.35;;;3.30;93.10;;;;;;4985488;28;20026;-67
2021/12/07 09:01:24;;;;;;;4.25;1.88;;;3.30;93.00;;;;;;5003643;28;20253;-68
2021/12/07 09:03:51;;;;;;;8.40;2.20;;;3.30;92.70;;;;;;4986238;28;20022;-66
2021/12/07 09:06:17;;;;;;;8.32;1.80;;;3.40;92.80;;;;;;4985101;28;20244;-67
2021/12/07 09:08:43;;;;;;;2.60;1.70;;;3.40;92.50;;;;;;4986264;28;20035;-67
2021/12/07 09:11:10;;;;;;;3.10;1.47;;;3.50;92.50;;;;;;4986356;28;20023;-67
2021/12/07 09:13:36;;;;;;;2.10;1.60;;;3.60;92.30;;;;;;4985407;28;20027;-67
2021/12/07 09:16:03;;;;;;;7.50;1.88;;;3.60;92.30;;;;;;4985883;28;20053;-68
2021/12/07 09:18:29;;;;;;;5.30;2.20;;;3.70;92.20;;;;;;4986079;28;20026;-67
2021/12/07 09:20:55;;;;;;;7.70;1.98;;;3.70;92.20;;;;;;4985784;28;20038;-67
2021/12/07 09:23:20;;;;;;;4.07;2.00;;;3.70;92.10;;;;;;4985903;28;20023;-68
2021/12/07 09:25:46;;;;;;;7.40;1.90;;;3.70;92.10;;;;;;4985735;28;20081;-67
2021/12/07 09:28:12;;;;;;;3.22;1.20;;;3.80;92.00;;;;;;4985930;28;20028;-67
2021/12/07 09:30:38;;;;;;;2.60;2.10;;;3.80;91.90;;;;;;4985982;28;20019;-68
2021/12/07 09:33:04;;;;;;;2.33;1.27;;;3.80;92.10;;;;;;4985726;28;20029;-68
2021/12/07 09:35:30;;;;;;;3.17;1.40;;;3.80;92.00;;;;;;5034207;23;20342;-67
2021/12/07 09:37:56;;;;;;;3.28;1.63;;;3.80;91.60;;;;;;5054969;28;20017;-66
2021/12/07 09:40:24;;;;;;;3.30;1.30;;;3.80;91.70;;;;;;5045521;28;20102;-66
2021/12/07 09:42:51;;;;;;;4.50;1.70;;;3.90;91.70;;;;;;5062175;28;20017;-67
2021/12/07 09:45:17;;;;;;;4.85;1.77;;;3.80;92.00;;;;;;5062883;28;20335;-66
2021/12/07 09:47:44;;;;;;;4.43;1.83;;;3.80;92.10;;;;;;5063090;28;20060;-66
2021/12/07 09:50:12;;;;;;;4.32;1.98;;;3.80;92.10;;;;;;5045322;28;20112;-67
2021/12/07 09:52:38;;;;;;;4.78;1.77;;;3.80;92.10;;;;;;5063146;28;20028;-68
2021/12/07 09:55:05;;;;;;;7.25;2.38;;;3.90;92.00;;;;;;5062441;28;20097;-67
2021/12/07 09:57:30;;;;;;;4.30;1.88;;;4.00;92.10;;;;;;5062935;28;20025;-67
2021/12/07 09:59:56;;;;;;;7.05;2.30;;;4.00;91.90;;;;;;5062727;28;20320;-67
2021/12/07 10:02:22;;;;;;;5.45;2.00;;;4.10;91.90;;;;;;5061759;28;20017;-66
2021/12/07 10:04:48;;;;;;;4.43;1.73;;;4.10;91.40;;;;;;5061665;28;20021;-66
2021/12/07 10:07:14;;;;;;;3.60;1.85;;;4.10;91.50;;;;;;5021519;28;20022;-66
2021/12/07 10:09:40;;;;;;;4.68;1.80;;;4.20;91.50;;;;;;5022863;28;20018;-67
2021/12/07 10:12:07;;;;;;;5.47;2.75;;;4.30;91.20;;;;;;5021644;28;20033;-67
2021/12/07 10:14:40;;;;;;;6.43;1.90;;;4.30;91.00;;;;;;5021429;28;20026;-67
2021/12/07 10:17:06;;;;;;;7.35;2.67;;;4.30;91.10;;;;;;5024604;28;20021;-66
2021/12/07 10:19:38;;;;;;;3.50;1.90;;;4.50;90.90;;;;;;5041757;28;20028;-66
2021/12/07 10:22:07;;;;;;;5.45;2.05;;;4.60;90.50;;;;;;5042296;28;20032;-67
2021/12/07 10:24:54;;;;;;;4.07;2.45;;;4.50;90.20;;;;;;5040876;28;20021;-67
2021/12/07 10:27:43;;;;;;;4.32;1.58;;;4.60;90.60;;;;;;5042462;28;20071;-67
2021/12/07 10:30:17;;;;;;;4.97;1.85;;;4.60;90.30;;;;;;5041497;28;20088;-67
2021/12/07 10:33:04;;;;;;;6.45;2.85;;;4.70;90.20;;;;;;5042565;28;20027;-66
2021/12/07 10:35:36;;;;;;;3.65;1.80;;;4.70;89.50;;;;;;5034326;28;20026;-66
2021/12/07 10:38:15;;;;;;;6.53;1.45;;;4.80;90.00;;;;;;5022665;28;20037;-67
2021/12/07 10:41:10;;;;;;;7.93;1.75;;;5.10;88.70;;;;;;5022633;28;20049;-66
2021/12/07 10:43:49;;;;;;;2.38;1.77;;;5.50;86.90;;;;;;5021294;28;20030;-67
2021/12/07 10:46:41;;;;;;;7.32;1.70;;;5.70;84.80;;;;;;5020915;28;20030;-66
2021/12/07 10:49:46;;;;;;;5.57;1.83;;;5.60;83.90;;;;;;5022005;28;20054;-66
2021/12/07 10:52:28;;;;;;;4.25;1.70;;;6.00;83.50;;;;;;5022044;28;20026;-66
2021/12/07 10:55:15;;;;;;;6.72;1.42;;;7.00;78.40;;;;;;5022371;28;20194;-67
2021/12/07 10:57:51;;;;;;;3.05;1.42;;;6.80;77.70;;;;;;5022428;28;20022;-66
2021/12/07 11:00:27;;;;;;;6.43;2.40;;;6.10;80.80;;;;;;5022088;28;20021;-67
2021/12/07 11:03:29;;;;;;;6.15;2.17;;;5.60;83.50;;;;;;5021717;28;20021;-67
2021/12/07 11:05:55;;;;;;;4.40;1.55;;;5.40;85.10;;;;;;5029826;28;20039;-66
2021/12/07 11:08:25;;;;;;;4.57;1.70;;;5.40;85.10;;;;;;5041458;28;20025;-67
2021/12/07 11:10:52;;;;;;;3.42;2.30;;;5.20;85.20;;;;;;5040686;28;20048;-66
2021/12/07 11:13:33;;;;;;;5.30;1.90;;;5.10;86.40;;;;;;5040272;28;20049;-67
2021/12/07 11:16:03;;;;;;;6.30;2.00;;;5.10;86.50;;;;;;5040965;28;20080;-66
2021/12/07 11:18:31;;;;;;;7.15;1.70;;;5.30;85.80;;;;;;5041217;28;20060;-66
2021/12/07 11:21:04;;;;;;;5.20;1.40;;;5.40;85.50;;;;;;5039643;28;20056;-67
2021/12/07 11:23:46;;;;;;;7.53;2.17;;;5.30;85.80;;;;;;5040031;28;20101;-67
2021/12/07 11:31:57;;;;;;;2.30;1.52;;;4.80;86.90;;;;;;5041082;28;20347;-66
2021/12/07 11:34:26;;;;;;;1.95;1.48;;;4.70;87.70;;;;;;5040774;28;20013;-66
2021/12/07 11:37:03;;;;;;;9.40;2.03;;;4.60;89.00;;;;;;5040294;28;20144;-66
2021/12/07 11:39:30;;;;;;;3.80;1.52;;;4.60;89.30;;;;;;5039732;28;20032;-66
2021/12/07 11:42:01;;;;;;;6.82;2.58;;;4.60;89.10;;;;;;5040656;28;20100;-67
2021/12/07 11:44:27;;;;;;;4.53;1.60;;;4.50;89.20;;;;;;5040502;28;20259;-66
2021/12/07 11:46:53;;;;;;;7.03;2.23;;;4.50;89.00;;;;;;5039809;28;20148;-67
2021/12/07 11:49:23;;;;;;;8.07;1.60;;;4.50;89.20;;;;;;5039379;28;20281;-67
2021/12/07 11:51:54;;;;;;;3.05;1.65;;;4.50;88.90;;;;;;5019111;28;20264;-66
2021/12/07 11:54:22;;;;;;;4.13;1.55;;;4.40;88.40;;;;;;5020444;28;20041;-67
2021/12/07 11:56:48;;;;;;;2.60;1.55;;;4.40;89.50;;;;;;5020845;28;20093;-68
2021/12/07 11:59:14;;;;;;;11.07;2.22;;;4.40;89.00;;;;;;5021050;28;20072;-66
2021/12/07 12:01:42;;;;;;;4.70;1.45;;;4.40;89.70;;;;;;5021147;28;20103;-66
2021/12/07 12:04:07;;;;;;;3.05;1.75;;;4.40;89.50;;;;;;5019769;28;20021;-70
2021/12/07 12:06:34;;;;;;;6.17;1.97;;;4.40;89.90;;;;;;5035840;28;20029;-66
2021/12/07 12:09:00;;;;;;;9.45;2.15;;;4.40;89.60;;;;;;5020784;28;20037;-66
2021/12/07 12:11:40;;;;;;;10.37;1.83;;;4.50;89.60;;;;;;5003426;28;20029;-67
2021/12/07 12:14:27;;;;;;;6.32;1.60;;;4.50;87.80;;;;;;5020911;28;20029;-66
2021/12/07 12:17:38;;;;;;;4.15;2.40;;;4.50;88.10;;;;;;5020793;28;20041;-66
2021/12/07 12:20:34;;;;;;;8.70;2.10;;;4.60;87.80;;;;;;5025401;28;20056;-66
2021/12/07 12:23:33;;;;;;;5.97;1.75;;;4.80;88.00;;;;;;5040646;28;20033;-67
2021/12/07 12:26:02;;;;;;;;;;;5.10;87.10;;;;;;5040752;28;20025;-67
2021/12/07 12:28:49;;;;;;;3.55;2.03;;;5.30;85.70;;;;;;5040703;28;19932;-67
2021/12/07 12:31:17;;;;;;;4.40;2.05;;;5.40;83.80;;;;;;5039446;28;20092;-67
2021/12/07 12:33:56;;;;;;;4.88;1.50;;;5.60;83.80;;;;;;5039275;28;20040;-67
2021/12/07 12:36:25;;;;;;;8.13;1.40;;;5.70;82.90;;;;;;5038475;28;20025;-68
2021/12/07 12:39:04;;;;;;;4.28;1.60;;;5.70;82.40;;;;;;5023136;28;20021;-68
2021/12/07 12:41:30;;;;;;;8.60;1.50;;;5.80;82.40;;;;;;5039484;28;20021;-68
2021/12/07 12:44:08;;;;;;;7.07;1.87;;;5.70;81.90;;;;;;5055806;28;20068;-67
2021/12/07 12:46:35;;;;;;;3.38;1.58;;;5.50;81.10;;;;;;5040305;28;20088;-68
2021/12/07 12:49:04;;;;;;;;;;;5.30;83.10;;;;;;5043094;28;20033;-67
2021/12/07 12:51:41;;;;;;;4.63;1.48;;;5.30;83.70;;;;;;5024511;28;19909;-68
2021/12/07 12:54:08;;;;;;;4.30;1.85;;;5.20;84.10;;;;;;5023950;28;20025;-70
2021/12/07 12:56:36;;;;;;;2.30;1.77;;;5.20;83.40;;;;;;5023684;28;20032;-66
2021/12/07 12:59:09;;;;;;;6.03;2.03;;;5.20;83.80;;;;;;5024056;28;20037;-68
2021/12/07 13:01:35;;;;;;;5.90;1.65;;;5.10;84.40;;;;;;5024050;28;20029;-68
2021/12/07 13:04:10;;;;;;;6.60;1.52;;;5.00;85.00;;;;;;5022872;28;20075;-67
2021/12/07 13:09:36;;;;;;;;;;;4.60;86.60;;;;;;5023074;28;20033;-68
2021/12/07 13:12:16;;;;;;;4.07;1.63;;;4.50;87.20;;;;;;5022878;28;19925;-67
2021/12/07 13:15:09;;;;;;;7.00;2.15;;;4.60;87.70;;;;;;5022647;28;20366;-65
2021/12/07 13:17:48;;;;;;;5.03;1.50;;;4.60;87.40;;;;;;5022743;28;20028;-68
2021/12/07 13:20:34;;;;;;;11.77;3.53;;;4.70;87.50;;;;;;5030439;28;20092;-68
2021/12/07 13:23:11;;;;;;;2.80;1.80;;;4.80;87.50;;;;;;5043610;28;20039;-67
2021/12/07 13:25:49;;;;;;;6.78;1.40;;;4.90;86.70;;;;;;5043280;28;20032;-67
2021/12/07 13:28:25;;;;;;;4.65;1.73;;;5.00;86.90;;;;;;5043332;28;20267;-67
2021/12/07 13:31:12;;;;;;;4.40;2.15;;;4.90;86.40;;;;;;5043549;28;20100;-67
2021/12/07 13:33:41;;;;;;;4.07;1.50;;;4.90;87.20;;;;;;5043565;28;20300;-67
2021/12/07 13:36:36;;;;;;;5.47;2.30;;;4.90;86.50;;;;;;5042569;28;20056;-66
2021/12/07 13:39:19;;;;;;;2.80;1.35;;;4.80;86.90;;;;;;5043332;28;20023;-67
2021/12/07 13:42:16;;;;;;;6.40;1.65;;;4.70;86.10;;;;;;5043226;28;20088;-66
2021/12/07 13:45:06;;;;;;;5.50;1.50;;;4.70;86.00;;;;;;5042795;28;20316;-67
2021/12/07 13:47:40;;;;;;;4.05;1.58;;;4.70;85.20;;;;;;5037308;28;20171;-67
2021/12/07 13:50:13;;;;;;;5.82;3.38;;;4.80;85.60;;;;;;5021597;28;20048;-69
2021/12/07 13:52:43;;;;;;;3.53;1.30;;;4.80;85.80;;;;;;5022975;28;20201;-68
2021/12/07 13:55:21;;;;;;;5.75;2.50;;;4.70;86.30;;;;;;5021059;28;20089;-68
2021/12/07 13:57:49;;;;;;;4.97;1.80;;;4.70;87.00;;;;;;5028007;28;20040;-68
2021/12/07 14:00:36;;;;;;;5.55;1.67;;;4.60;86.60;;;;;;5037123;28;20037;-67
2021/12/07 14:03:11;;;;;;;6.65;2.05;;;4.60;86.60;;;;;;5042493;28;20160;-67
2021/12/07 14:05:39;;;;;;;5.60;2.10;;;4.60;86.60;;;;;;5024572;28;20022;-67
2021/12/07 14:08:08;;;;;;;5.05;1.58;;;4.60;87.00;;;;;;5021281;28;20113;-67
2021/12/07 14:10:40;;;;;;;5.28;1.55;;;4.50;87.00;;;;;;5022643;28;20096;-68
2021/12/07 14:13:06;;;;;;;10.23;2.80;;;4.50;87.80;;;;;;5021272;28;20040;-68
2021/12/07 14:15:37;;;;;;;4.63;1.80;;;4.40;87.60;;;;;;5022073;28;20312;-68
2021/12/07 14:18:08;;;;;;;6.32;1.73;;;4.30;87.80;;;;;;5022359;28;20036;-68
2021/12/07 14:20:48;;;;;;;4.93;1.50;;;4.40;86.90;;;;;;5022069;28;20072;-67
2021/12/07 14:23:24;;;;;;;5.70;1.80;;;4.40;87.30;;;;;;5021137;28;20057;-67
2021/12/07 14:26:10;;;;;;;4.78;1.60;;;4.40;87.30;;;;;;5022206;28;20092;-68
2021/12/07 14:28:45;;;;;;;2.80;1.48;;;4.40;87.50;;;;;;5021168;28;20030;-67
2021/12/07 14:31:13;;;;;;;4.95;1.70;;;4.40;87.40;;;;;;5022371;28;20048;-68
2021/12/07 14:33:46;;;;;;;13.70;5.07;;;4.30;87.50;;;;;;5022450;28;20102;-68
2021/12/07 14:36:13;;;;;;;9.65;2.85;;;4.30;88.00;;;;;;5021668;28;20037;-67
2021/12/07 14:38:39;;;;;;;4.78;2.17;;;4.40;87.50;;;;;;5021138;28;20029;-68
2021/12/07 14:41:18;;;;;;;7.10;2.23;;;4.40;87.70;;;;;;5021179;28;20251;-67
2021/12/07 14:43:44;;;;;;;11.55;3.75;;;4.40;88.20;;;;;;5021092;28;20260;-67
2021/12/07 14:46:12;;;;;;;9.23;3.40;;;4.40;88.50;;;;;;5020588;28;20161;-67
2021/12/07 14:48:38;;;;;;;6.10;4.05;;;4.40;88.80;;;;;;5022140;28;20081;-67
2021/12/07 14:51:13;;;;;;;11.45;3.30;;;4.40;89.30;;;;;;5021744;28;20048;-67
2021/12/07 14:53:41;;;;;;;3.42;2.90;;;4.40;89.40;;;;;;5020827;28;20164;-68
2021/12/07 14:56:10;;;;;;;7.28;3.08;;;4.40;88.70;;;;;;5021762;28;20029;-67